createdAt,value
2023-01-27T00:00:06.513Z,-0.4
2023-01-27T00:01:05.864Z,-1
2023-01-27T00:02:06.141Z,-0.4
2023-01-27T00:03:05.612Z,-1
2023-01-27T00:04:06.362Z,-0.4
2023-01-27T00:05:06.669Z,-0.4
2023-01-27T00:06:06.182Z,-0.4
2023-01-27T00:07:05.835Z,-0.4
2023-01-27T00:08:06.303Z,-0.4
2023-01-27T00:09:05.647Z,-1
2023-01-27T00:10:06.253Z,-0.4
2023-01-27T00:11:05.822Z,-0.4
2023-01-27T00:12:06.387Z,-0.4
2023-01-27T00:13:05.802Z,-0.4
2023-01-27T00:14:06.062Z,-0.4
2023-01-27T00:15:05.881Z,-0.4
2023-01-27T00:16:06.135Z,-0.4
2023-01-27T00:17:06.540Z,-0.4
2023-01-27T00:18:05.947Z,-0.4
2023-01-27T00:19:06.473Z,-0.4
2023-01-27T00:20:08.058Z,-0.4
2023-01-27T00:21:06.525Z,-1
2023-01-27T00:22:05.989Z,-0.4
2023-01-27T00:23:06.349Z,-0.4
2023-01-27T00:24:06.020Z,-1
2023-01-27T00:25:06.226Z,-1
2023-01-27T00:26:05.585Z,-0.4
2023-01-27T00:27:06.154Z,-0.4
2023-01-27T00:28:06.536Z,-0.4
2023-01-27T00:29:05.935Z,-0.4
2023-01-27T00:30:06.579Z,-1
2023-01-27T00:31:06.800Z,-0.4
2023-01-27T00:32:06.002Z,-0.4
2023-01-27T00:33:06.676Z,-0.4
2023-01-27T00:34:06.073Z,-0.4
2023-01-27T00:35:06.343Z,-0.4
2023-01-27T00:36:05.874Z,-0.4
2023-01-27T00:37:06.615Z,-1
2023-01-27T00:38:06.092Z,-1
2023-01-27T00:39:06.680Z,-0.4
2023-01-27T00:40:05.914Z,-0.5
2023-01-27T00:41:06.417Z,-0.5
2023-01-27T00:42:05.944Z,-0.4
2023-01-27T00:43:06.512Z,-0.4
2023-01-27T00:44:05.828Z,-0.4
2023-01-27T00:45:06.316Z,-0.4
2023-01-27T00:46:06.058Z,-0.5
2023-01-27T00:47:06.284Z,-0.5
2023-01-27T00:48:05.971Z,-0.5
2023-01-27T00:49:06.431Z,-0.5
2023-01-27T00:50:05.745Z,-0.5
2023-01-27T00:51:06.305Z,-0.5
2023-01-27T00:52:05.643Z,-1
2023-01-27T00:53:06.231Z,-0.5
2023-01-27T00:54:05.510Z,-0.5
2023-01-27T00:55:06.195Z,-0.5
2023-01-27T00:56:05.748Z,-0.5
2023-01-27T00:57:06.135Z,-0.5
2023-01-27T00:58:06.549Z,-0.5
2023-01-27T00:59:06.089Z,-0.5
2023-01-27T01:00:05.776Z,-1
2023-01-27T01:01:06.634Z,-0.5
2023-01-27T01:02:06.285Z,-1
2023-01-27T01:03:06.700Z,-0.5
2023-01-27T01:04:06.286Z,-0.5
2023-01-27T01:05:05.587Z,-1
2023-01-27T01:06:06.196Z,-0.5
2023-01-27T01:07:06.638Z,-0.5
2023-01-27T01:08:05.873Z,-0.6
2023-01-27T01:09:06.489Z,-0.6
2023-01-27T01:10:05.986Z,-0.6
2023-01-27T01:11:06.528Z,-0.6
2023-01-27T01:12:06.169Z,-0.6
2023-01-27T01:13:06.433Z,-0.6
2023-01-27T01:14:06.233Z,-0.6
2023-01-27T01:15:05.788Z,-0.6
2023-01-27T01:16:06.373Z,-0.6
2023-01-27T01:17:05.906Z,-0.6
2023-01-27T01:18:06.367Z,-0.5
2023-01-27T01:19:05.777Z,-0.6
2023-01-27T01:20:06.166Z,-0.6
2023-01-27T01:21:05.738Z,-1
2023-01-27T01:22:08.970Z,-0.6
2023-01-27T01:23:05.819Z,-0.6
2023-01-27T01:24:06.413Z,-0.6
2023-01-27T01:25:05.603Z,-0.6
2023-01-27T01:26:06.200Z,-1
2023-01-27T01:27:05.817Z,-0.6
2023-01-27T01:28:06.326Z,-1
2023-01-27T01:29:06.148Z,-1
2023-01-27T01:30:06.399Z,-0.6
2023-01-27T01:31:05.844Z,-0.6
2023-01-27T01:32:06.080Z,-0.6
2023-01-27T01:33:06.576Z,-0.6
2023-01-27T01:34:06.207Z,-0.6
2023-01-27T01:35:06.680Z,-1
2023-01-27T01:36:06.193Z,-0.6
2023-01-27T01:37:06.658Z,-1
2023-01-27T01:38:06.077Z,-0.6
2023-01-27T01:39:05.645Z,-0.7
2023-01-27T01:40:06.125Z,-0.7
2023-01-27T01:41:05.773Z,-1
2023-01-27T01:42:06.049Z,-0.7
2023-01-27T01:43:05.793Z,-0.6
2023-01-27T01:44:06.018Z,-0.7
2023-01-27T01:45:05.589Z,-0.7
2023-01-27T01:46:06.381Z,-0.6
2023-01-27T01:47:05.795Z,-0.6
2023-01-27T01:48:06.428Z,-0.6
2023-01-27T01:49:06.026Z,-0.6
2023-01-27T01:50:06.392Z,-0.6
2023-01-27T01:51:05.942Z,-0.7
2023-01-27T01:52:06.491Z,-0.7
2023-01-27T01:53:06.057Z,-0.6
2023-01-27T01:54:06.421Z,-0.7
2023-01-27T01:55:05.884Z,-0.6
2023-01-27T01:56:06.403Z,-0.7
2023-01-27T01:57:06.006Z,-0.7
2023-01-27T01:58:06.405Z,-0.6
2023-01-27T01:59:06.010Z,-0.7
2023-01-27T02:00:06.573Z,-0.7
2023-01-27T02:01:06.492Z,-0.7
2023-01-27T02:02:06.264Z,-0.7
2023-01-27T02:03:06.611Z,-0.7
2023-01-27T02:04:05.992Z,-1
2023-01-27T02:05:06.278Z,-0.7
2023-01-27T02:06:05.914Z,-0.7
2023-01-27T02:07:06.513Z,-0.7
2023-01-27T02:08:05.893Z,-0.7
2023-01-27T02:09:05.890Z,-0.7
2023-01-27T02:10:06.427Z,-0.7
2023-01-27T02:11:05.773Z,-0.7
2023-01-27T02:12:06.542Z,-0.7
2023-01-27T02:13:05.778Z,-0.7
2023-01-27T02:14:06.381Z,-0.7
2023-01-27T02:15:05.840Z,-0.7
2023-01-27T02:16:05.669Z,-1
2023-01-27T02:17:06.247Z,-0.7
2023-01-27T02:18:05.607Z,-0.7
2023-01-27T02:19:06.143Z,-0.7
2023-01-27T02:20:05.872Z,-0.7
2023-01-27T02:21:06.425Z,-0.7
2023-01-27T02:22:05.881Z,-1
2023-01-27T02:23:06.106Z,-0.7
2023-01-27T02:24:05.920Z,-0.7
2023-01-27T02:25:06.273Z,-0.7
2023-01-27T02:26:05.777Z,-0.7
2023-01-27T02:27:06.359Z,-1
2023-01-27T02:28:05.870Z,-1
2023-01-27T02:29:06.295Z,-0.7
2023-01-27T02:30:05.785Z,-0.7
2023-01-27T02:31:06.674Z,-1
2023-01-27T02:32:05.782Z,-0.7
2023-01-27T02:33:06.232Z,-0.7
2023-01-27T02:34:06.192Z,-1
2023-01-27T02:35:06.531Z,-1
2023-01-27T02:36:06.019Z,-0.7
2023-01-27T02:37:05.565Z,-0.7
2023-01-27T02:38:06.335Z,-0.7
2023-01-27T02:39:05.765Z,-0.7
2023-01-27T02:40:06.182Z,-0.7
2023-01-27T02:41:05.800Z,-0.7
2023-01-27T02:42:06.271Z,-0.7
2023-01-27T02:43:05.826Z,-0.7
2023-01-27T02:44:06.321Z,-0.7
2023-01-27T02:45:05.642Z,-1
2023-01-27T02:46:05.735Z,-0.7
2023-01-27T02:47:06.130Z,-0.7
2023-01-27T02:48:06.672Z,-0.7
2023-01-27T02:49:06.249Z,-0.7
2023-01-27T02:50:06.677Z,-0.7
2023-01-27T02:51:06.035Z,-1
2023-01-27T02:52:06.459Z,-0.7
2023-01-27T02:53:05.868Z,-1
2023-01-27T02:54:06.435Z,-0.7
2023-01-27T02:55:05.927Z,-0.7
2023-01-27T02:56:06.237Z,-0.7
2023-01-27T02:57:05.973Z,-0.7
2023-01-27T02:58:06.547Z,-0.7
2023-01-27T02:59:06.152Z,-0.8
2023-01-27T03:00:06.533Z,-0.7
2023-01-27T03:01:05.932Z,-0.7
2023-01-27T03:02:06.493Z,-0.7
2023-01-27T03:03:05.702Z,-0.7
2023-01-27T03:04:06.214Z,-0.7
2023-01-27T03:05:05.903Z,-1
2023-01-27T03:06:06.403Z,-0.7
2023-01-27T03:07:05.789Z,-0.7
2023-01-27T03:08:06.145Z,-0.7
2023-01-27T03:09:05.844Z,-0.7
2023-01-27T03:10:06.520Z,-0.8
2023-01-27T03:11:05.852Z,-0.7
2023-01-27T03:12:06.390Z,-0.7
2023-01-27T03:13:05.754Z,-0.8
2023-01-27T03:14:05.866Z,-0.8
2023-01-27T03:15:06.553Z,-0.8
2023-01-27T03:16:06.480Z,-0.8
2023-01-27T03:17:05.937Z,-0.8
2023-01-27T03:18:06.567Z,-0.7
2023-01-27T03:19:05.948Z,-0.8
2023-01-27T03:20:06.535Z,-0.8
2023-01-27T03:21:05.953Z,-0.8
2023-01-27T03:22:06.415Z,-0.8
2023-01-27T03:23:05.924Z,-0.7
2023-01-27T03:24:06.330Z,-0.7
2023-01-27T03:25:05.811Z,-0.8
2023-01-27T03:26:06.233Z,-0.8
2023-01-27T03:27:05.917Z,-1
2023-01-27T03:28:06.739Z,-1
2023-01-27T03:29:06.150Z,-0.8
2023-01-27T03:30:06.559Z,-0.8
2023-01-27T03:31:06.250Z,-0.8
2023-01-27T03:32:06.216Z,-0.8
2023-01-27T03:33:06.497Z,-0.8
2023-01-27T03:34:06.175Z,-0.8
2023-01-27T03:35:05.681Z,-0.8
2023-01-27T03:36:06.049Z,-1
2023-01-27T03:37:06.062Z,-0.8
2023-01-27T03:38:06.229Z,-1
2023-01-27T03:39:05.587Z,-1
2023-01-27T03:40:06.190Z,-0.8
2023-01-27T03:41:06.512Z,-0.8
2023-01-27T03:42:06.136Z,-0.8
2023-01-27T03:43:06.571Z,-0.7
2023-01-27T03:44:05.976Z,-0.7
2023-01-27T03:45:06.688Z,-0.7
2023-01-27T03:46:06.311Z,-0.8
2023-01-27T03:47:05.851Z,-0.8
2023-01-27T03:48:06.397Z,-0.8
2023-01-27T03:49:05.943Z,-0.8
2023-01-27T03:50:06.370Z,-0.8
2023-01-27T03:51:06.122Z,-0.8
2023-01-27T03:52:06.268Z,-0.8
2023-01-27T03:53:06.065Z,-0.8
2023-01-27T03:54:06.513Z,-0.8
2023-01-27T03:55:05.933Z,-0.7
2023-01-27T03:56:06.453Z,-0.7
2023-01-27T03:57:06.329Z,-0.8
2023-01-27T03:58:06.398Z,-0.7
2023-01-27T03:59:05.722Z,-0.8
2023-01-27T04:00:06.351Z,-0.8
2023-01-27T04:01:06.314Z,-0.7
2023-01-27T04:02:05.533Z,-0.7
2023-01-27T04:03:06.378Z,-1
2023-01-27T04:04:05.617Z,-0.7
2023-01-27T04:05:06.163Z,-0.7
2023-01-27T04:06:06.753Z,-0.7
2023-01-27T04:07:06.191Z,-0.7
2023-01-27T04:08:06.614Z,-0.7
2023-01-27T04:09:06.141Z,-0.8
2023-01-27T04:10:06.541Z,-0.8
2023-01-27T04:11:05.935Z,-0.8
2023-01-27T04:12:06.424Z,-0.8
2023-01-27T04:13:05.808Z,-0.8
2023-01-27T04:14:06.392Z,-0.8
2023-01-27T04:15:05.754Z,-0.7
2023-01-27T04:16:06.599Z,-0.8
2023-01-27T04:17:05.901Z,-0.7
2023-01-27T04:18:06.500Z,-0.7
2023-01-27T04:19:05.794Z,-1
2023-01-27T04:20:06.376Z,-0.7
2023-01-27T04:21:06.041Z,-0.7
2023-01-27T04:22:06.317Z,-0.7
2023-01-27T04:23:05.948Z,-0.8
2023-01-27T04:24:06.457Z,-0.7
2023-01-27T04:25:06.515Z,-0.7
2023-01-27T04:26:05.970Z,-0.7
2023-01-27T04:27:06.562Z,-0.7
2023-01-27T04:28:06.087Z,-0.7
2023-01-27T04:29:06.602Z,-0.7
2023-01-27T04:30:06.376Z,-0.7
2023-01-27T04:31:06.076Z,-1
2023-01-27T04:32:06.311Z,-1
2023-01-27T04:33:06.069Z,-0.7
2023-01-27T04:34:06.168Z,-0.7
2023-01-27T04:35:06.013Z,-1
2023-01-27T04:36:06.411Z,-0.7
2023-01-27T04:37:05.863Z,-1
2023-01-27T04:38:06.368Z,-0.7
2023-01-27T04:39:05.995Z,-0.7
2023-01-27T04:40:06.204Z,-1
2023-01-27T04:41:05.637Z,-0.7
2023-01-27T04:42:06.048Z,-1
2023-01-27T04:43:06.621Z,-1
2023-01-27T04:44:05.847Z,-0.7
2023-01-27T04:45:06.434Z,-0.7
2023-01-27T04:46:06.615Z,-0.7
2023-01-27T04:47:05.874Z,-0.7
2023-01-27T04:48:06.229Z,-0.7
2023-01-27T04:49:05.847Z,-0.7
2023-01-27T04:50:06.332Z,-0.7
2023-01-27T04:51:05.897Z,-0.7
2023-01-27T04:52:06.057Z,-0.7
2023-01-27T04:53:05.798Z,-0.6
2023-01-27T04:54:06.407Z,-1
2023-01-27T04:55:05.953Z,-0.7
2023-01-27T04:56:06.451Z,-0.7
2023-01-27T04:57:06.118Z,-0.6
2023-01-27T04:58:06.539Z,-0.6
2023-01-27T04:59:06.014Z,-0.6
2023-01-27T05:00:06.489Z,-0.6
2023-01-27T05:01:06.561Z,-0.6
2023-01-27T05:02:06.288Z,-0.6
2023-01-27T05:03:06.013Z,-0.6
2023-01-27T05:04:06.444Z,-0.6
2023-01-27T05:05:06.061Z,-0.6
2023-01-27T05:06:06.287Z,-1
2023-01-27T05:07:05.996Z,-0.6
2023-01-27T05:08:06.585Z,-0.6
2023-01-27T05:09:05.953Z,-0.6
2023-01-27T05:10:06.593Z,-0.6
2023-01-27T05:11:06.147Z,-0.6
2023-01-27T05:12:06.762Z,-0.6
2023-01-27T05:13:06.167Z,-1
2023-01-27T05:14:06.747Z,-0.6
2023-01-27T05:15:06.433Z,-1
2023-01-27T05:16:06.045Z,-0.6
2023-01-27T05:17:06.346Z,-0.6
2023-01-27T05:18:06.458Z,-0.6
2023-01-27T05:19:06.554Z,-0.6
2023-01-27T05:20:06.199Z,-0.6
2023-01-27T05:21:05.799Z,-0.6
2023-01-27T05:22:06.423Z,-0.6
2023-01-27T05:23:06.174Z,-0.6
2023-01-27T05:24:06.695Z,-1
2023-01-27T05:25:06.377Z,-0.6
2023-01-27T05:26:06.844Z,-0.6
2023-01-27T05:27:06.242Z,-0.6
2023-01-27T05:28:06.768Z,-0.6
2023-01-27T05:29:06.282Z,-1
2023-01-27T05:30:05.793Z,-1
2023-01-27T05:31:06.871Z,-1
2023-01-27T05:32:06.272Z,-0.6
2023-01-27T05:33:06.555Z,-0.6
2023-01-27T05:34:05.959Z,-1
2023-01-27T05:35:06.616Z,-0.6
2023-01-27T05:36:06.034Z,-0.6
2023-01-27T05:37:06.570Z,-0.6
2023-01-27T05:38:05.959Z,-0.6
2023-01-27T05:39:08.849Z,-0.6
2023-01-27T05:40:06.176Z,-0.7
2023-01-27T05:41:05.670Z,-0.6
2023-01-27T05:42:06.170Z,-0.6
2023-01-27T05:43:05.814Z,-0.6
2023-01-27T05:44:06.409Z,-0.6
2023-01-27T05:45:05.827Z,-0.7
2023-01-27T05:46:06.224Z,-0.6
2023-01-27T05:47:06.473Z,-0.6
2023-01-27T05:48:05.848Z,-0.6
2023-01-27T05:49:06.452Z,-0.7
2023-01-27T05:50:05.920Z,-0.7
2023-01-27T05:51:06.407Z,-1
2023-01-27T05:52:05.833Z,-0.7
2023-01-27T05:53:06.497Z,-0.7
2023-01-27T05:54:06.011Z,-0.7
2023-01-27T05:55:06.406Z,-0.7
2023-01-27T05:56:05.871Z,-0.7
2023-01-27T05:57:06.403Z,-0.7
2023-01-27T05:58:05.788Z,-0.7
2023-01-27T05:59:06.346Z,-1
2023-01-27T06:00:05.733Z,-1
2023-01-27T06:01:05.925Z,-1
2023-01-27T06:02:06.684Z,-0.7
2023-01-27T06:03:06.105Z,-0.7
2023-01-27T06:04:06.351Z,-0.7
2023-01-27T06:05:05.738Z,-0.7
2023-01-27T06:06:06.310Z,-1
2023-01-27T06:07:06.749Z,-1
2023-01-27T06:08:06.179Z,-0.7
2023-01-27T06:09:05.781Z,-0.7
2023-01-27T06:10:06.224Z,-0.7
2023-01-27T06:11:05.670Z,-0.7
2023-01-27T06:12:06.332Z,-0.7
2023-01-27T06:13:05.765Z,-0.7
2023-01-27T06:14:06.087Z,-0.7
2023-01-27T06:15:05.830Z,-0.7
2023-01-27T06:16:06.156Z,-0.7
2023-01-27T06:17:06.207Z,-0.7
2023-01-27T06:18:05.645Z,-0.7
2023-01-27T06:19:06.083Z,-0.7
2023-01-27T06:20:06.634Z,-0.7
2023-01-27T06:21:06.092Z,-0.7
2023-01-27T06:22:06.490Z,-0.7
2023-01-27T06:23:06.250Z,-0.7
2023-01-27T06:24:06.807Z,-1
2023-01-27T06:25:06.183Z,-0.7
2023-01-27T06:26:05.817Z,-0.7
2023-01-27T06:27:06.503Z,-0.7
2023-01-27T06:28:06.049Z,-1
2023-01-27T06:29:06.408Z,-0.7
2023-01-27T06:30:06.107Z,-0.7
2023-01-27T06:31:06.712Z,-0.7
2023-01-27T06:32:06.049Z,-0.7
2023-01-27T06:33:06.424Z,-0.7
2023-01-27T06:34:05.758Z,-0.7
2023-01-27T06:35:06.307Z,-0.7
2023-01-27T06:36:05.716Z,-0.7
2023-01-27T06:37:06.419Z,-0.7
2023-01-27T06:38:05.753Z,-0.7
2023-01-27T06:39:06.305Z,-0.7
2023-01-27T06:40:05.851Z,-1
2023-01-27T06:41:06.150Z,-0.7
2023-01-27T06:42:05.864Z,-0.7
2023-01-27T06:43:06.329Z,-1
2023-01-27T06:44:05.821Z,-0.7
2023-01-27T06:45:06.239Z,-0.7
2023-01-27T06:46:09.674Z,-1
2023-01-27T06:47:06.430Z,-1
2023-01-27T06:48:05.986Z,-0.7
2023-01-27T06:49:06.537Z,-0.7
2023-01-27T06:50:06.117Z,-0.7
2023-01-27T06:51:06.655Z,-0.7
2023-01-27T06:52:05.986Z,-0.7
2023-01-27T06:53:06.587Z,-0.7
2023-01-27T06:54:06.081Z,-0.7
2023-01-27T06:55:06.798Z,-0.7
2023-01-27T06:56:05.994Z,-0.7
2023-01-27T06:57:06.401Z,-0.7
2023-01-27T06:58:06.151Z,-0.7
2023-01-27T06:59:06.417Z,-0.6
2023-01-27T07:00:06.230Z,-1
2023-01-27T07:01:06.789Z,-0.6
2023-01-27T07:02:06.064Z,-0.7
2023-01-27T07:03:06.643Z,-1
2023-01-27T07:04:06.004Z,-0.6
2023-01-27T07:05:06.488Z,-0.6
2023-01-27T07:06:05.983Z,-0.6
2023-01-27T07:07:06.666Z,-0.6
2023-01-27T07:08:06.090Z,-0.6
2023-01-27T07:09:06.546Z,-0.6
2023-01-27T07:10:06.134Z,-1
2023-01-27T07:11:06.495Z,-1
2023-01-27T07:12:06.252Z,-0.6
2023-01-27T07:13:05.829Z,-1
2023-01-27T07:14:06.140Z,-1
2023-01-27T07:15:06.622Z,-0.6
2023-01-27T07:16:06.241Z,-0.6
2023-01-27T07:17:06.193Z,-0.6
2023-01-27T07:18:05.945Z,-0.6
2023-01-27T07:19:06.255Z,-0.6
2023-01-27T07:20:05.767Z,-0.6
2023-01-27T07:21:06.361Z,-0.6
2023-01-27T07:22:05.879Z,-0.6
2023-01-27T07:23:06.221Z,-0.6
2023-01-27T07:24:05.912Z,-0.6
2023-01-27T07:25:06.331Z,-0.6
2023-01-27T07:26:24.462Z,-0.6
2023-01-27T07:27:05.912Z,-0.6
2023-01-27T07:28:06.550Z,-1
2023-01-27T07:29:06.015Z,-0.6
2023-01-27T07:30:06.488Z,-0.6
2023-01-27T07:31:05.824Z,-0.6
2023-01-27T07:32:06.372Z,-0.6
2023-01-27T07:33:06.743Z,-0.6
2023-01-27T07:34:06.035Z,-0.6
2023-01-27T07:35:06.549Z,-0.6
2023-01-27T07:36:06.041Z,-0.5
2023-01-27T07:37:06.710Z,-0.6
2023-01-27T07:38:05.968Z,-0.5
2023-01-27T07:39:06.367Z,-0.5
2023-01-27T07:40:05.953Z,-0.6
2023-01-27T07:41:06.584Z,-0.6
2023-01-27T07:42:06.061Z,-0.5
2023-01-27T07:43:05.887Z,-0.6
2023-01-27T07:44:06.327Z,-0.6
2023-01-27T07:45:05.790Z,-0.6
2023-01-27T07:46:06.169Z,-0.6
2023-01-27T07:47:06.634Z,-0.6
2023-01-27T07:48:06.182Z,-0.6
2023-01-27T07:49:06.491Z,-0.6
2023-01-27T07:50:06.090Z,-0.6
2023-01-27T07:51:06.537Z,-0.6
2023-01-27T07:52:05.882Z,-0.6
2023-01-27T07:53:06.512Z,-0.5
2023-01-27T07:54:06.471Z,-0.6
2023-01-27T07:55:06.602Z,-0.5
2023-01-27T07:56:06.120Z,-0.5
2023-01-27T07:57:06.491Z,-0.5
2023-01-27T07:58:05.978Z,-0.5
2023-01-27T07:59:06.349Z,-0.5
2023-01-27T08:00:06.106Z,-0.5
2023-01-27T08:01:06.419Z,-0.5
2023-01-27T08:02:05.873Z,-0.5
2023-01-27T08:03:06.553Z,-0.5
2023-01-27T08:04:05.816Z,-0.5
2023-01-27T08:05:06.254Z,-0.5
2023-01-27T08:06:05.789Z,-0.5
2023-01-27T08:07:06.205Z,-0.5
2023-01-27T08:08:05.709Z,-0.5
2023-01-27T08:09:06.138Z,-0.5
2023-01-27T08:10:05.751Z,-0.5
2023-01-27T08:11:06.403Z,-0.5
2023-01-27T08:12:05.805Z,-1
2023-01-27T08:13:06.409Z,-1
2023-01-27T08:14:05.768Z,-0.5
2023-01-27T08:15:06.175Z,-0.5
2023-01-27T08:16:06.612Z,-0.5
2023-01-27T08:17:05.845Z,-1
2023-01-27T08:18:06.478Z,-0.5
2023-01-27T08:19:05.880Z,-0.4
2023-01-27T08:20:06.529Z,-0.5
2023-01-27T08:21:06.103Z,-0.5
2023-01-27T08:22:06.464Z,-0.5
2023-01-27T08:23:05.979Z,-0.5
2023-01-27T08:24:06.875Z,-0.5
2023-01-27T08:25:05.987Z,-1
2023-01-27T08:26:06.508Z,-0.4
2023-01-27T08:27:08.174Z,-0.4
2023-01-27T08:28:06.395Z,-0.5
2023-01-27T08:29:05.825Z,-0.5
2023-01-27T08:30:06.462Z,-0.4
2023-01-27T08:31:05.805Z,-0.4
2023-01-27T08:32:06.195Z,-0.4
2023-01-27T08:33:05.757Z,-0.4
2023-01-27T08:34:06.211Z,-0.4
2023-01-27T08:35:05.587Z,-1
2023-01-27T08:36:06.341Z,-0.4
2023-01-27T08:37:05.700Z,-1
2023-01-27T08:38:06.445Z,-0.4
2023-01-27T08:39:06.069Z,-0.4
2023-01-27T08:40:06.437Z,-0.4
2023-01-27T08:41:05.717Z,-0.4
2023-01-27T08:42:06.244Z,-0.4
2023-01-27T08:43:08.168Z,-0.4
2023-01-27T08:44:06.308Z,-0.3
2023-01-27T08:45:05.817Z,-0.3
2023-01-27T08:46:06.384Z,-1
2023-01-27T08:47:06.659Z,-0.3
2023-01-27T08:48:05.808Z,-0.3
2023-01-27T08:49:06.315Z,-1
2023-01-27T08:50:05.980Z,-0.3
2023-01-27T08:51:05.965Z,-0.3
2023-01-27T08:52:06.528Z,-0.3
2023-01-27T08:53:05.767Z,-0.2
2023-01-27T08:54:06.444Z,-0.3
2023-01-27T08:55:06.703Z,-0.2
2023-01-27T08:56:06.121Z,-0.3
2023-01-27T08:57:06.665Z,-0.2
2023-01-27T08:58:06.141Z,-0.2
2023-01-27T08:59:06.578Z,-0.2
2023-01-27T09:00:05.887Z,-0.2
2023-01-27T09:01:05.884Z,-0.2
2023-01-27T09:02:06.224Z,-0.2
2023-01-27T09:03:06.691Z,-0.2
2023-01-27T09:04:06.227Z,-0.1
2023-01-27T09:05:05.730Z,-0.1
2023-01-27T09:06:06.224Z,-0.1
2023-01-27T09:07:05.711Z,-0.2
2023-01-27T09:08:06.048Z,-0.1
2023-01-27T09:09:05.813Z,0
2023-01-27T09:10:25.236Z,0
2023-01-27T09:11:06.405Z,0
2023-01-27T09:12:05.857Z,-0.1
2023-01-27T09:13:06.206Z,0
2023-01-27T09:14:05.855Z,0
2023-01-27T09:15:06.354Z,0
2023-01-27T09:16:06.092Z,0
2023-01-27T09:17:06.293Z,0
2023-01-27T09:18:08.510Z,0
2023-01-27T09:19:06.181Z,0
2023-01-27T09:20:05.660Z,0
2023-01-27T09:21:06.234Z,0
2023-01-27T09:22:05.681Z,0
2023-01-27T09:23:05.992Z,0
2023-01-27T09:24:06.577Z,0
2023-01-27T09:25:05.975Z,0
2023-01-27T09:26:06.595Z,0
2023-01-27T09:27:05.870Z,0
2023-01-27T09:28:06.464Z,0
2023-01-27T09:29:05.704Z,0.1
2023-01-27T09:30:06.262Z,0.1
2023-01-27T09:31:06.900Z,0
2023-01-27T09:32:06.125Z,0.1
2023-01-27T09:33:06.438Z,0.1
2023-01-27T09:34:05.707Z,0.1
2023-01-27T09:35:06.479Z,0.1
2023-01-27T09:36:06.059Z,0.1
2023-01-27T09:37:06.425Z,0.1
2023-01-27T09:38:05.923Z,0.1
2023-01-27T09:39:06.479Z,0.1
2023-01-27T09:40:06.200Z,0.1
2023-01-27T09:41:06.549Z,0.1
2023-01-27T09:42:06.077Z,0
2023-01-27T09:43:06.549Z,0
2023-01-27T09:44:05.976Z,0.1
2023-01-27T09:45:06.469Z,0.1
2023-01-27T09:46:06.269Z,0.1
2023-01-27T09:47:06.677Z,0.1
2023-01-27T09:48:06.214Z,0.1
2023-01-27T09:49:05.661Z,0.2
2023-01-27T09:50:06.310Z,0.1
2023-01-27T09:51:08.182Z,0.1
2023-01-27T09:52:05.995Z,0.1
2023-01-27T09:53:06.678Z,0.1
2023-01-27T09:54:06.104Z,0.1
2023-01-27T09:55:06.583Z,0.1
2023-01-27T09:56:06.035Z,0
2023-01-27T09:57:06.530Z,0
2023-01-27T09:58:06.179Z,0.1
2023-01-27T09:59:06.452Z,0
2023-01-27T10:00:06.041Z,0.1
2023-01-27T10:01:06.688Z,0.1
2023-01-27T10:02:05.996Z,0.2
2023-01-27T10:03:06.379Z,0.2
2023-01-27T10:04:05.736Z,0.1
2023-01-27T10:05:06.337Z,0.2
2023-01-27T10:06:05.954Z,0.1
2023-01-27T10:07:06.271Z,0.1
2023-01-27T10:08:05.895Z,0.1
2023-01-27T10:09:06.533Z,0.1
2023-01-27T10:10:06.101Z,0.1
2023-01-27T10:11:06.513Z,0
2023-01-27T10:12:06.081Z,0.1
2023-01-27T10:13:05.617Z,0.2
2023-01-27T10:14:06.192Z,0.2
2023-01-27T10:15:06.643Z,0.2
2023-01-27T10:16:06.662Z,0.2
2023-01-27T10:17:06.128Z,0.2
2023-01-27T10:18:06.488Z,0.2
2023-01-27T10:19:06.001Z,0.2
2023-01-27T10:20:06.403Z,0.2
2023-01-27T10:21:05.842Z,0.2
2023-01-27T10:22:06.602Z,0.2
2023-01-27T10:23:05.764Z,0
2023-01-27T10:24:06.353Z,0.3
2023-01-27T10:25:05.935Z,0.2
2023-01-27T10:26:06.138Z,0.3
2023-01-27T10:27:07.148Z,0.2
2023-01-27T10:28:06.099Z,0.3
2023-01-27T10:29:06.668Z,0.3
2023-01-27T10:30:06.160Z,0
2023-01-27T10:31:06.084Z,0.3
2023-01-27T10:32:06.442Z,0.4
2023-01-27T10:33:05.872Z,0.4
2023-01-27T10:34:06.392Z,0.4
2023-01-27T10:35:06.000Z,0
2023-01-27T10:36:06.495Z,0.4
2023-01-27T10:37:06.122Z,0.4
2023-01-27T10:38:06.563Z,0.4
2023-01-27T10:39:06.258Z,0.4
2023-01-27T10:40:06.617Z,0.4
2023-01-27T10:41:05.938Z,0.4
2023-01-27T10:42:06.534Z,0.4
2023-01-27T10:43:05.984Z,0.4
2023-01-27T10:44:06.372Z,0.4
2023-01-27T10:45:05.798Z,0.4
2023-01-27T10:46:06.006Z,0
2023-01-27T10:47:06.063Z,0.4
2023-01-27T10:48:06.649Z,0.4
2023-01-27T10:49:06.201Z,0.4
2023-01-27T10:50:05.628Z,0.4
2023-01-27T10:51:06.226Z,0.4
2023-01-27T10:52:05.710Z,0.4
2023-01-27T10:53:06.238Z,0.4
2023-01-27T10:54:06.685Z,0.5
2023-01-27T10:55:06.202Z,0.5
2023-01-27T10:56:06.589Z,0.5
2023-01-27T10:57:06.079Z,0.5
2023-01-27T10:58:06.697Z,0
2023-01-27T10:59:07.212Z,0.5
2023-01-27T11:01:21.178Z,0.5
2023-01-27T11:01:30.932Z,0.4
2023-01-27T11:02:06.375Z,0.4
2023-01-27T11:03:06.568Z,0.5
2023-01-27T11:04:06.370Z,0.4
2023-01-27T11:05:06.649Z,0.4
2023-01-27T11:06:06.094Z,0
2023-01-27T11:07:06.567Z,0.4
2023-01-27T11:08:06.022Z,0.4
2023-01-27T11:09:05.789Z,0.4
2023-01-27T11:10:06.265Z,0.4
2023-01-27T11:11:05.776Z,0.4
2023-01-27T11:12:06.233Z,0.4
2023-01-27T11:13:06.602Z,0.4
2023-01-27T11:14:06.063Z,0.4
2023-01-27T11:15:06.650Z,0.4
2023-01-27T11:16:05.878Z,0.5
2023-01-27T11:17:06.330Z,0.4
2023-01-27T11:18:05.782Z,0.4
2023-01-27T11:19:06.334Z,0.4
2023-01-27T11:20:05.915Z,0.4
2023-01-27T11:21:06.385Z,0.4
2023-01-27T11:22:12.975Z,0
2023-01-27T11:23:06.154Z,0.4
2023-01-27T11:24:05.898Z,0.4
2023-01-27T11:25:06.136Z,0.5
2023-01-27T11:26:05.708Z,0.5
2023-01-27T11:27:06.275Z,0.5
2023-01-27T11:28:05.688Z,0.5
2023-01-27T11:29:06.081Z,0.5
2023-01-27T11:30:06.909Z,0.5
2023-01-27T11:31:06.456Z,0.5
2023-01-27T11:32:06.229Z,0.5
2023-01-27T11:33:06.280Z,0
2023-01-27T11:34:05.833Z,0.5
2023-01-27T11:35:06.309Z,0.5
2023-01-27T11:36:05.864Z,0.4
2023-01-27T11:37:06.304Z,0.5
2023-01-27T11:38:19.282Z,0
2023-01-27T11:39:06.386Z,0.5
2023-01-27T11:40:05.913Z,0.5
2023-01-27T11:41:06.494Z,0.5
2023-01-27T11:42:06.138Z,0.5
2023-01-27T11:43:06.358Z,0.5
2023-01-27T11:44:05.898Z,0.5
2023-01-27T11:45:06.189Z,0.6
2023-01-27T11:46:06.002Z,0.5
2023-01-27T11:47:06.404Z,0.5
2023-01-27T11:48:05.815Z,0.6
2023-01-27T11:49:06.329Z,0
2023-01-27T11:50:05.813Z,0
2023-01-27T11:51:06.379Z,0.6
2023-01-27T11:52:05.653Z,0.6
2023-01-27T11:53:06.255Z,0.6
2023-01-27T11:54:05.749Z,0
2023-01-27T11:55:06.202Z,0.6
2023-01-27T11:56:05.825Z,0.6
2023-01-27T11:57:06.169Z,0.7
2023-01-27T11:58:05.814Z,0.7
2023-01-27T11:59:06.256Z,0.7
2023-01-27T12:00:05.774Z,0.7
2023-01-27T12:01:06.209Z,0.7
2023-01-27T12:02:05.885Z,0.7
2023-01-27T12:03:06.404Z,0.7
2023-01-27T12:04:06.040Z,0.7
2023-01-27T12:05:06.542Z,0.7
2023-01-27T12:06:05.822Z,0.8
2023-01-27T12:07:06.045Z,0.8
2023-01-27T12:08:06.636Z,0
2023-01-27T12:09:05.994Z,0
2023-01-27T12:10:06.513Z,0
2023-01-27T12:11:05.819Z,0.8
2023-01-27T12:12:06.372Z,0.8
2023-01-27T12:13:05.977Z,0.8
2023-01-27T12:14:06.683Z,0.9
2023-01-27T12:15:05.935Z,0.9
2023-01-27T12:16:06.475Z,0.9
2023-01-27T12:17:06.578Z,0.9
2023-01-27T12:18:06.029Z,0.9
2023-01-27T12:19:06.484Z,0.9
2023-01-27T12:20:05.977Z,1
2023-01-27T12:21:06.683Z,0.9
2023-01-27T12:22:05.722Z,1
2023-01-27T12:23:06.381Z,1
2023-01-27T12:24:05.859Z,1
2023-01-27T12:25:06.413Z,1
2023-01-27T12:26:05.940Z,1
2023-01-27T12:27:06.425Z,1
2023-01-27T12:28:05.902Z,1
2023-01-27T12:29:06.393Z,1.1
2023-01-27T12:30:05.850Z,1.1
2023-01-27T12:31:06.069Z,1.1
2023-01-27T12:32:06.649Z,1
2023-01-27T12:33:05.785Z,1
2023-01-27T12:34:06.394Z,1
2023-01-27T12:35:05.695Z,1
2023-01-27T12:36:06.456Z,1
2023-01-27T12:37:05.859Z,1
2023-01-27T12:38:06.344Z,1
2023-01-27T12:39:05.762Z,1
2023-01-27T12:40:06.161Z,0.9
2023-01-27T12:41:06.351Z,1
2023-01-27T12:42:06.027Z,0.9
2023-01-27T12:43:05.884Z,0.9
2023-01-27T12:44:06.355Z,1
2023-01-27T12:45:06.295Z,1
2023-01-27T12:46:06.259Z,0.9
2023-01-27T12:47:06.527Z,1
2023-01-27T12:48:06.127Z,1
2023-01-27T12:49:06.536Z,1
2023-01-27T12:50:05.958Z,1
2023-01-27T12:51:06.555Z,0.9
2023-01-27T12:52:06.357Z,0.9
2023-01-27T12:53:05.732Z,0.9
2023-01-27T12:54:06.099Z,0.8
2023-01-27T12:55:05.706Z,0.9
2023-01-27T12:56:06.237Z,0.8
2023-01-27T12:57:05.584Z,0.9
2023-01-27T12:58:06.180Z,0.8
2023-01-27T12:59:05.801Z,0.8
2023-01-27T13:00:06.413Z,0.8
2023-01-27T13:01:06.200Z,0.8
2023-01-27T13:02:06.890Z,0.8
2023-01-27T13:03:05.900Z,0.8
2023-01-27T13:04:06.727Z,0.8
2023-01-27T13:05:05.948Z,0.8
2023-01-27T13:06:06.607Z,0.8
2023-01-27T13:07:05.923Z,0.8
2023-01-27T13:08:05.788Z,0.8
2023-01-27T13:09:06.470Z,0.9
2023-01-27T13:10:07.652Z,1
2023-01-27T13:11:05.906Z,0.8
2023-01-27T13:12:06.559Z,0.8
2023-01-27T13:13:05.981Z,0.8
2023-01-27T13:14:06.453Z,0.9
2023-01-27T13:15:06.181Z,0.9
2023-01-27T13:16:06.164Z,0.9
2023-01-27T13:17:05.718Z,0.8
2023-01-27T13:18:06.031Z,0.8
2023-01-27T13:19:06.497Z,0.8
2023-01-27T13:20:06.002Z,0.9
2023-01-27T13:21:06.607Z,0.9
2023-01-27T13:22:06.141Z,0.9
2023-01-27T13:23:06.594Z,0.9
2023-01-27T13:24:06.138Z,0.8
2023-01-27T13:25:06.623Z,0.8
2023-01-27T13:26:06.253Z,0.9
2023-01-27T13:27:06.674Z,0.9
2023-01-27T13:28:06.025Z,0.8
2023-01-27T13:29:06.459Z,0.8
2023-01-27T13:30:06.035Z,0.8
2023-01-27T13:31:06.487Z,1
2023-01-27T13:32:06.039Z,0.9
2023-01-27T13:33:06.431Z,1
2023-01-27T13:34:05.854Z,0.9
2023-01-27T13:35:06.292Z,0.8
2023-01-27T13:36:05.755Z,0.8
2023-01-27T13:37:06.088Z,0.9